Time;durP1;ratioP1;P1;durP2;ratioP2;P2;SDS_P1;SDS_P2;PMS_P1;PMS_P2;Temp;Humidity;BMP_temperature;BMP_pressure;BME280_temperature;BME280_humidity;BME280_pressure;Samples;Min_cycle;Max_cycle;Signal;HPM_P1;HPM_P2
2023/03/01 00:42:18;;;;;;;15.45;11.10;;;2.70;99.90;;;;;;6237633;22;20443;-95
2023/03/01 00:45:18;;;;;;;14.70;11.32;;;2.70;99.90;;;;;;6289014;22;20020;-93
2023/03/01 00:47:48;;;;;;;26.52;12.45;;;2.70;99.90;;;;;;6300239;22;19984;-96
2023/03/01 01:20:21;;;;;;;16.17;12.60;;;2.80;99.90;;;;;;6248827;22;20011;-95
2023/03/01 02:28:25;;;;;;;19.73;14.88;;;2.80;99.90;;;;;;6188238;23;20039;-96
2023/03/01 07:37:42;;;;;;;16.75;13.45;;;1.60;99.90;;;;;;6248429;23;20035;-95
2023/03/01 07:40:16;;;;;;;20.35;13.45;;;1.00;99.90;;;;;;6250602;23;20005;-95
2023/03/01 07:42:44;;;;;;;23.63;13.73;;;1.50;99.90;;;;;;6255191;23;20055;-95
2023/03/01 07:45:15;;;;;;;22.42;13.95;;;1.50;99.90;;;;;;6250037;23;20004;-95
2023/03/01 07:47:40;;;;;;;18.98;13.60;;;1.60;99.90;;;;;;6246249;23;20004;-94
2023/03/01 07:50:13;;;;;;;17.50;13.82;;;2.50;99.90;;;;;;6248090;23;20039;-95
2023/03/01 07:55:17;;;;;;;24.05;14.18;;;1.80;99.90;;;;;;6274890;22;20031;-93
2023/03/01 07:58:20;;;;;;;16.08;13.15;;;2.50;99.90;;;;;;6309299;22;20010;-92
2023/03/01 08:00:48;;;;;;;17.83;13.68;;;1.90;99.90;;;;;;6289600;22;20079;-94
2023/03/01 08:03:45;;;;;;;19.73;14.10;;;2.30;99.90;;;;;;6310541;22;20000;-96
2023/03/01 08:12:32;;;;;;;;;;;;;;;;;;;;;
2023/03/01 08:22:23;;;;;;;17.20;13.10;;;2.30;99.90;;;;;;6311134;22;20335;-95
2023/03/01 08:24:52;;;;;;;17.80;13.20;;;2.40;99.90;;;;;;6309661;22;20078;-94
2023/03/01 08:33:50;;;;;;;21.40;12.73;;;2.60;99.90;;;;;;6241436;22;19999;-93
2023/03/01 08:36:44;;;;;;;16.60;11.68;;;3.20;99.90;;;;;;6230253;22;20014;-94
2023/03/01 08:46:17;;;;;;;21.30;12.00;;;2.70;99.90;;;;;;6310854;22;20026;-93
2023/03/01 08:58:05;;;;;;;;;;;;;;;;;;;;;
2023/03/01 09:06:11;;;;;;;11.77;9.75;;;3.50;99.90;;;;;;6269247;22;20343;-94
2023/03/01 09:14:45;;;;;;;14.43;8.68;;;3.50;99.90;;;;;;6293172;22;20022;-94
2023/03/01 09:18:16;;;;;;;12.70;8.40;;;3.70;99.90;;;;;;6273354;22;20732;-93
2023/03/01 09:31:31;;;;;;;13.25;7.45;;;4.10;99.90;;;;;;6279220;22;20106;-94
2023/03/01 09:34:02;;;;;;;9.07;6.70;;;4.30;99.90;;;;;;6309262;22;20366;-89
2023/03/01 10:10:42;;;;;;;4.78;3.70;;;4.40;99.90;;;;;;6317645;22;20476;-95
2023/03/01 10:17:10;;;;;;;5.13;3.38;;;4.80;99.90;;;;;;6315059;22;20022;-92
2023/03/01 10:44:32;;;;;;;5.70;4.25;;;5.20;99.90;;;;;;6258698;22;20440;-94
2023/03/01 10:50:34;;;;;;;8.73;3.92;;;5.20;99.90;;;;;;6281579;22;20126;-95
2023/03/01 10:53:37;;;;;;;9.23;4.30;;;5.40;99.90;;;;;;6302759;22;20011;-94
2023/03/01 10:56:33;;;;;;;4.80;4.10;;;5.40;99.90;;;;;;6306281;22;20089;-95
2023/03/01 11:02:33;;;;;;;4.80;3.70;;;4.90;99.90;;;;;;6246988;22;20049;-95
2023/03/01 11:05:15;;;;;;;;;;;;;;;;;;;;;
2023/03/01 11:11:33;;;;;;;7.40;4.03;;;5.40;99.90;;;;;;6255326;22;20004;-95
2023/03/01 11:14:50;;;;;;;;;;;;;;;;;;;;;
2023/03/01 11:17:33;;;;;;;4.93;3.95;;;5.00;99.90;;;;;;6241586;22;20102;-91
2023/03/01 11:20:37;;;;;;;5.35;4.45;;;5.70;99.90;;;;;;6312214;22;20078;-95
2023/03/01 11:23:47;;;;;;;;;;;;;;;;;;;;;
2023/03/01 11:26:35;;;;;;;4.03;3.45;;;5.60;99.90;;;;;;6230193;22;20042;-95
2023/03/01 11:32:05;;;;;;;;;;;;;;;;;;;;;
2023/03/01 11:35:19;;;;;;;4.15;3.70;;;5.80;99.90;;;;;;6262115;22;20086;-94
2023/03/01 11:37:54;;;;;;;5.38;3.75;;;5.90;99.90;;;;;;6150316;23;20065;-92
2023/03/01 11:40:25;;;;;;;4.28;3.45;;;5.90;99.90;;;;;;6280333;22;20023;-92
2023/03/01 11:43:29;;;;;;;3.85;3.45;;;5.90;99.90;;;;;;6306483;22;20023;-93
2023/03/01 11:45:55;;;;;;;9.20;3.50;;;6.00;99.90;;;;;;6304266;22;20015;-94
2023/03/01 11:48:54;;;;;;;4.20;3.47;;;6.60;99.90;;;;;;6308113;22;20044;-93
2023/03/01 11:51:38;;;;;;;4.05;3.22;;;6.70;99.90;;;;;;6307539;22;20114;-93
2023/03/01 11:54:34;;;;;;;4.03;3.50;;;6.10;99.90;;;;;;6306092;22;20084;-93
2023/03/01 11:57:10;;;;;;;5.80;3.58;;;6.20;99.90;;;;;;6309294;22;20441;-89
2023/03/01 12:00:12;;;;;;;4.72;3.30;;;6.20;99.90;;;;;;6306702;22;20003;-89
2023/03/01 12:03:09;;;;;;;5.47;3.75;;;6.20;99.90;;;;;;6308203;22;20031;-93
2023/03/01 12:05:58;;;;;;;6.85;3.67;;;6.30;99.90;;;;;;6312352;22;20000;-93
2023/03/01 12:08:29;;;;;;;4.85;4.18;;;6.40;99.90;;;;;;6299378;22;20035;-93
2023/03/01 12:11:13;;;;;;;8.80;4.10;;;6.90;99.90;;;;;;6310021;22;20007;-92
2023/03/01 12:14:03;;;;;;;6.05;4.25;;;6.40;99.90;;;;;;6311010;22;20004;-92
2023/03/01 12:16:48;;;;;;;9.35;3.30;;;6.50;99.90;;;;;;6312012;22;20426;-93
2023/03/01 12:19:49;;;;;;;4.72;4.10;;;6.50;99.90;;;;;;6310753;22;20007;-93
2023/03/01 12:22:39;;;;;;;6.20;3.58;;;6.50;99.90;;;;;;6310450;22;20079;-93
2023/03/01 12:25:36;;;;;;;9.90;4.22;;;5.80;99.90;;;;;;6309269;22;19999;-93
2023/03/01 12:28:38;;;;;;;26.23;3.90;;;6.70;99.90;;;;;;6310822;22;20011;-92
2023/03/01 12:31:26;;;;;;;8.60;3.92;;;6.80;99.90;;;;;;6310044;22;20086;-92
2023/03/01 12:34:14;;;;;;;7.18;4.88;;;6.80;99.90;;;;;;6298974;22;20060;-93
2023/03/01 12:37:09;;;;;;;7.05;4.78;;;6.80;99.90;;;;;;6307847;22;20007;-92
2023/03/01 12:40:16;;;;;;;7.28;5.28;;;6.90;99.90;;;;;;6308877;22;20447;-93
2023/03/01 12:43:19;;;;;;;6.45;4.45;;;6.90;99.90;;;;;;6309572;22;20033;-93
2023/03/01 12:45:56;;;;;;;9.98;4.90;;;6.90;99.90;;;;;;6309272;22;20026;-92
2023/03/01 12:49:16;;;;;;;5.05;4.15;;;7.60;99.90;;;;;;6309202;22;20007;-92
2023/03/01 12:51:58;;;;;;;7.35;4.88;;;7.00;99.90;;;;;;6155273;23;20013;-93
2023/03/01 12:54:30;;;;;;;7.68;4.90;;;7.60;99.90;;;;;;6154960;23;20001;-92
2023/03/01 12:56:59;;;;;;;6.10;4.28;;;7.60;99.90;;;;;;6154747;23;20441;-93
2023/03/01 12:59:55;;;;;;;3.93;3.53;;;7.60;99.90;;;;;;6155212;23;20064;-93
2023/03/01 13:02:29;;;;;;;6.28;3.88;;;7.20;99.70;;;;;;6154150;23;20013;-94
2023/03/01 13:05:22;;;;;;;5.90;4.00;;;7.90;99.90;;;;;;6153446;23;20005;-92
2023/03/01 13:08:28;;;;;;;5.35;3.30;;;7.80;99.80;;;;;;6308028;22;20074;-92
2023/03/01 13:11:03;;;;;;;5.05;3.42;;;7.40;98.50;;;;;;6308214;22;20034;-92
2023/03/01 13:13:29;;;;;;;3.97;3.35;;;8.80;98.50;;;;;;6308983;22;20010;-92
2023/03/01 13:16:30;;;;;;;5.57;3.55;;;7.50;98.20;;;;;;6309793;22;20007;-93
2023/03/01 13:19:32;;;;;;;5.15;3.45;;;8.10;99.00;;;;;;6309462;22;20014;-92
2023/03/01 13:22:26;;;;;;;3.92;3.20;;;7.60;99.10;;;;;;6309680;22;20090;-93
2023/03/01 13:25:42;;;;;;;4.78;3.10;;;8.20;99.00;;;;;;6303551;22;20008;-92
2023/03/01 13:28:35;;;;;;;7.47;3.67;;;7.20;98.50;;;;;;6309448;22;19999;-93
2023/03/01 13:31:06;;;;;;;2.65;2.45;;;7.70;97.60;;;;;;6310344;22;20014;-91
2023/03/01 13:34:09;;;;;;;3.35;2.90;;;7.40;96.10;;;;;;6308601;22;20462;-92
2023/03/01 13:36:37;;;;;;;4.90;4.05;;;7.80;96.50;;;;;;6310713;22;20010;-93
2023/03/01 13:39:39;;;;;;;5.82;2.75;;;8.50;97.80;;;;;;6309454;22;20007;-95
2023/03/01 13:42:38;;;;;;;4.05;3.33;;;7.80;96.70;;;;;;6309418;22;20007;-93
2023/03/01 13:45:38;;;;;;;3.90;3.05;;;7.50;97.10;;;;;;6310247;22;20431;-93
2023/03/01 13:51:40;;;;;;;4.82;3.10;;;8.50;96.40;;;;;;6309030;22;20042;-93
2023/03/01 13:54:13;;;;;;;4.93;3.40;;;8.00;96.70;;;;;;6308272;22;20129;-93
2023/03/01 13:56:44;;;;;;;3.42;3.13;;;8.90;96.60;;;;;;6308650;22;20381;-93
2023/03/01 13:59:18;;;;;;;4.00;3.45;;;8.70;96.00;;;;;;6308900;22;20007;-93
2023/03/01 14:01:44;;;;;;;4.30;3.72;;;8.60;97.50;;;;;;6308683;22;20490;-94
2023/03/01 14:04:23;;;;;;;3.70;3.40;;;8.80;97.60;;;;;;6308857;22;20042;-93
2023/03/01 14:06:48;;;;;;;3.72;3.40;;;8.80;96.90;;;;;;6308345;22;20365;-93
2023/03/01 14:09:25;;;;;;;5.28;3.85;;;8.70;96.80;;;;;;6309143;22;20007;-92
2023/03/01 14:12:17;;;;;;;3.60;3.25;;;8.30;97.10;;;;;;6308512;22;19999;-93
2023/03/01 14:14:52;;;;;;;4.90;3.67;;;8.90;97.00;;;;;;6308715;22;20030;-90
2023/03/01 14:18:20;;;;;;;3.65;3.22;;;8.50;95.10;;;;;;6312321;22;20011;-96
2023/03/01 14:27:15;;;;;;;;;;;;;;;;;;;;;
2023/03/01 15:28:39;;;;;;;4.78;3.60;;;9.70;95.00;;;;;;5043785;27;2022658;-89
2023/03/01 15:34:29;;;;;;;6.30;3.92;;;9.50;94.10;;;;;;5093805;28;20061;-87
2023/03/01 15:37:00;;;;;;;4.00;3.65;;;9.90;94.80;;;;;;5090052;28;20024;-91
2023/03/01 15:39:42;;;;;;;3.65;3.28;;;9.70;94.10;;;;;;5090883;28;20460;-92
2023/03/01 15:42:26;;;;;;;7.35;4.07;;;9.70;93.50;;;;;;5093194;28;20472;-91
2023/03/01 15:45:16;;;;;;;7.10;3.53;;;9.60;94.00;;;;;;5107067;28;20319;-89
2023/03/01 15:47:57;;;;;;;4.75;3.58;;;9.60;94.00;;;;;;5110606;28;20092;-88
2023/03/01 15:50:27;;;;;;;5.35;3.85;;;9.60;93.90;;;;;;5104191;28;20651;-89
2023/03/01 15:53:10;;;;;;;6.70;4.00;;;8.90;94.00;;;;;;5107480;28;20031;-89
2023/03/01 15:55:36;;;;;;;7.95;4.32;;;10.00;95.60;;;;;;5090171;28;20187;-89
2023/03/01 15:58:21;;;;;;;4.93;4.50;;;9.50;94.60;;;;;;5090519;28;20133;-90
2023/03/01 16:03:54;;;;;;;4.75;3.60;;;9.80;94.70;;;;;;5091169;22;20052;-90
2023/03/01 16:06:19;;;;;;;4.97;4.03;;;11.20;96.10;;;;;;5089383;28;20024;-90
2023/03/01 16:08:45;;;;;;;6.22;4.00;;;9.90;95.40;;;;;;5088753;28;20074;-88
2023/03/01 16:11:15;;;;;;;7.50;4.10;;;9.90;95.00;;;;;;5082328;28;20028;-88
2023/03/01 16:13:53;;;;;;;4.85;3.72;;;9.80;94.50;;;;;;5103818;22;20015;-88
2023/03/01 16:16:19;;;;;;;6.55;4.47;;;10.00;95.50;;;;;;5047385;28;20068;-89
2023/03/01 16:18:47;;;;;;;10.55;5.30;;;9.70;94.20;;;;;;5045918;28;20065;-88
2023/03/01 16:21:28;;;;;;;4.55;4.03;;;9.60;94.40;;;;;;5041804;28;20043;-90
2023/03/01 16:23:53;;;;;;;6.78;4.97;;;10.20;94.60;;;;;;5031285;28;20108;-87
2023/03/01 16:26:25;;;;;;;4.60;3.85;;;10.80;95.00;;;;;;5038801;28;20414;-87
2023/03/01 16:28:55;;;;;;;7.18;4.07;;;9.70;95.00;;;;;;5041533;28;20142;-89
2023/03/01 16:31:28;;;;;;;4.78;4.07;;;9.00;95.40;;;;;;5040332;28;20033;-87
2023/03/01 16:33:55;;;;;;;5.38;4.40;;;9.80;95.40;;;;;;5048093;28;20037;-89
2023/03/01 16:36:42;;;;;;;8.57;4.32;;;9.80;95.60;;;;;;5040913;28;20021;-89
2023/03/01 16:39:09;;;;;;;7.18;4.32;;;9.20;95.90;;;;;;5029005;28;20384;-90
2023/03/01 16:41:34;;;;;;;13.45;4.55;;;9.10;96.00;;;;;;5028123;28;20091;-89
2023/03/01 16:44:01;;;;;;;4.80;4.25;;;9.40;96.00;;;;;;5033064;28;20473;-88
2023/03/01 16:46:28;;;;;;;5.60;4.47;;;8.90;96.10;;;;;;5031816;28;20064;-89
2023/03/01 16:48:54;;;;;;;5.90;4.53;;;8.90;96.20;;;;;;5034561;28;20037;-88
2023/03/01 16:51:21;;;;;;;7.18;5.40;;;8.80;96.20;;;;;;5016342;28;20141;-89
2023/03/01 16:53:47;;;;;;;6.55;5.57;;;8.70;96.30;;;;;;5035640;28;20049;-89
2023/03/01 16:56:21;;;;;;;6.80;5.75;;;8.60;96.40;;;;;;5034873;28;20539;-89
2023/03/01 16:58:48;;;;;;;6.00;5.20;;;8.40;96.30;;;;;;5035097;28;20033;-88
2023/03/01 17:01:23;;;;;;;5.35;4.47;;;8.40;96.30;;;;;;5033034;28;20052;-87
2023/03/01 17:03:49;;;;;;;7.63;5.38;;;8.90;96.50;;;;;;5035351;28;20048;-87
2023/03/01 17:06:21;;;;;;;8.07;4.40;;;8.20;96.50;;;;;;5033515;28;20037;-88
2023/03/01 17:08:50;;;;;;;8.20;4.78;;;8.20;96.50;;;;;;5035375;28;20391;-88
2023/03/01 17:11:18;;;;;;;5.80;5.20;;;8.10;96.50;;;;;;5034434;28;20025;-87
2023/03/01 17:13:44;;;;;;;8.32;4.40;;;8.00;96.40;;;;;;5034126;28;20045;-92
2023/03/01 17:16:14;;;;;;;8.05;5.47;;;7.90;96.40;;;;;;5035293;28;20025;-88
2023/03/01 17:18:39;;;;;;;12.40;5.40;;;7.90;96.40;;;;;;5033474;28;20038;-87
2023/03/01 17:21:06;;;;;;;7.38;5.32;;;7.80;96.40;;;;;;5030180;28;20021;-88
2023/03/01 17:23:33;;;;;;;7.95;5.72;;;7.80;96.50;;;;;;5031979;28;20048;-88
2023/03/01 17:25:58;;;;;;;6.85;5.30;;;7.70;96.30;;;;;;5031260;28;20112;-88
2023/03/01 17:28:27;;;;;;;8.48;5.32;;;7.70;96.50;;;;;;5031345;28;20171;-88
2023/03/01 17:31:46;;;;;;;8.40;5.22;;;7.80;96.70;;;;;;5033222;28;20022;-87
2023/03/01 17:34:40;;;;;;;10.38;5.30;;;7.40;97.60;;;;;;5043592;28;20013;-89
2023/03/01 17:37:06;;;;;;;8.52;5.65;;;7.40;98.00;;;;;;5040324;28;20033;-89
2023/03/01 17:39:34;;;;;;;7.03;5.57;;;8.10;98.30;;;;;;5035182;28;20526;-89
2023/03/01 17:42:02;;;;;;;11.60;5.88;;;7.70;98.10;;;;;;5034136;28;20037;-88
2023/03/01 17:44:32;;;;;;;10.68;5.30;;;8.00;98.00;;;;;;5032753;28;20076;-89
2023/03/01 17:47:02;;;;;;;8.30;5.07;;;7.10;97.90;;;;;;5033064;28;20037;-88
2023/03/01 17:49:32;;;;;;;10.25;4.72;;;7.50;98.10;;;;;;5028648;28;20104;-88
2023/03/01 17:52:03;;;;;;;7.90;5.35;;;6.80;98.20;;;;;;5034843;28;21662;-88
2023/03/01 17:54:35;;;;;;;8.18;5.20;;;7.00;98.40;;;;;;5032087;28;20033;-88
2023/03/01 17:57:03;;;;;;;8.48;5.20;;;6.90;98.50;;;;;;5029374;28;20109;-88
2023/03/01 17:59:44;;;;;;;6.78;5.15;;;6.40;98.30;;;;;;5027948;28;20040;-86
2023/03/01 18:02:11;;;;;;;7.68;5.90;;;7.40;98.50;;;;;;5024618;28;20030;-88
2023/03/01 18:04:37;;;;;;;6.35;5.43;;;6.80;98.40;;;;;;5025339;28;20029;-88
2023/03/01 18:07:08;;;;;;;8.93;5.80;;;6.50;98.30;;;;;;5027699;28;20043;-85
2023/03/01 18:09:40;;;;;;;13.27;5.63;;;7.90;98.80;;;;;;5026901;28;20022;-88
2023/03/01 18:12:15;;;;;;;9.18;5.05;;;6.90;98.80;;;;;;5026489;28;20025;-87
2023/03/01 18:14:52;;;;;;;7.22;5.60;;;6.60;98.60;;;;;;5028084;28;20427;-86
2023/03/01 18:17:22;;;;;;;15.40;5.90;;;6.70;98.60;;;;;;5026150;28;20044;-85
2023/03/01 18:19:57;;;;;;;9.80;5.72;;;7.20;98.80;;;;;;5026543;28;20043;-88
2023/03/01 18:22:23;;;;;;;6.88;5.47;;;7.30;99.10;;;;;;5026732;28;20104;-92
2023/03/01 18:24:58;;;;;;;8.50;5.07;;;7.00;99.00;;;;;;5018219;28;20113;-87
2023/03/01 18:27:32;;;;;;;10.43;5.55;;;7.30;99.30;;;;;;5012397;28;20129;-87
2023/03/01 18:29:58;;;;;;;5.90;5.30;;;6.90;99.30;;;;;;5017982;28;20034;-86
2023/03/01 18:32:30;;;;;;;8.77;5.55;;;6.80;99.40;;;;;;5012598;28;20026;-87
2023/03/01 18:35:03;;;;;;;10.35;5.82;;;7.10;99.60;;;;;;5010872;28;20033;-87
2023/03/01 18:37:31;;;;;;;9.88;6.13;;;7.00;99.70;;;;;;5011107;28;20378;-87
2023/03/01 18:40:07;;;;;;;7.32;4.85;;;6.30;99.60;;;;;;5011237;28;20021;-87
2023/03/01 18:42:32;;;;;;;7.18;5.07;;;7.00;99.60;;;;;;5010825;28;20445;-87
2023/03/01 18:44:58;;;;;;;7.32;5.40;;;7.30;99.70;;;;;;5011793;28;20022;-87
2023/03/01 18:47:26;;;;;;;9.32;6.05;;;6.20;99.50;;;;;;5011961;28;20243;-87
2023/03/01 18:49:55;;;;;;;5.72;4.90;;;6.60;99.60;;;;;;5013508;28;20415;-87
2023/03/01 18:52:25;;;;;;;6.35;5.10;;;6.20;99.50;;;;;;5035826;28;20021;-87
2023/03/01 18:54:57;;;;;;;6.90;5.25;;;6.60;99.70;;;;;;5042074;28;20025;-87
2023/03/01 18:57:31;;;;;;;6.95;5.32;;;7.30;99.80;;;;;;5032465;28;20029;-86
2023/03/01 18:59:57;;;;;;;13.77;5.60;;;6.60;99.50;;;;;;5032076;28;20488;-87
2023/03/01 19:02:31;;;;;;;8.45;5.63;;;6.10;99.40;;;;;;5032154;28;20029;-87
2023/03/01 19:05:00;;;;;;;7.93;5.10;;;6.60;99.60;;;;;;5046703;28;20491;-87
2023/03/01 19:07:28;;;;;;;6.95;5.30;;;6.00;99.50;;;;;;5052272;28;20047;-87
2023/03/01 19:10:00;;;;;;;9.48;6.07;;;6.50;99.50;;;;;;5035260;28;20032;-87
2023/03/01 19:12:43;;;;;;;9.27;6.00;;;6.10;99.60;;;;;;5042518;28;20518;-87
2023/03/01 19:15:09;;;;;;;9.65;6.13;;;6.00;99.80;;;;;;5033081;28;20095;-87
2023/03/01 19:17:41;;;;;;;6.88;5.47;;;6.00;99.70;;;;;;5031737;28;20021;-87
2023/03/01 19:20:07;;;;;;;7.63;6.28;;;6.30;99.70;;;;;;5031687;28;20508;-87
2023/03/01 19:22:33;;;;;;;9.88;6.97;;;5.80;99.90;;;;;;5037942;28;20021;-86
2023/03/01 19:24:58;;;;;;;10.60;8.05;;;5.90;99.80;;;;;;5038430;28;20481;-87
2023/03/01 19:27:24;;;;;;;11.80;8.02;;;5.90;99.70;;;;;;5031539;28;20056;-86
2023/03/01 19:29:49;;;;;;;14.43;7.50;;;5.90;99.70;;;;;;5031550;28;20136;-87
2023/03/01 19:32:15;;;;;;;10.80;6.72;;;6.20;99.80;;;;;;5030386;28;20036;-87
2023/03/01 19:34:41;;;;;;;10.48;5.97;;;6.40;99.90;;;;;;5031408;28;20024;-87
2023/03/01 19:37:08;;;;;;;7.50;5.88;;;5.80;99.90;;;;;;5044229;28;20379;-87
2023/03/01 19:39:34;;;;;;;6.93;5.53;;;5.80;99.90;;;;;;5030326;28;20045;-87
2023/03/01 19:42:00;;;;;;;7.30;5.95;;;5.70;99.90;;;;;;5024209;28;20032;-87
2023/03/01 19:44:26;;;;;;;6.20;5.57;;;5.70;99.90;;;;;;5044942;28;20373;-87
2023/03/01 19:46:53;;;;;;;9.25;5.95;;;5.60;99.90;;;;;;5041739;28;20536;-86
2023/03/01 19:49:19;;;;;;;8.30;5.53;;;5.60;99.90;;;;;;5027618;28;20053;-86
2023/03/01 19:51:45;;;;;;;11.07;5.68;;;5.60;99.90;;;;;;5024826;28;20048;-87
2023/03/01 19:54:13;;;;;;;8.80;6.32;;;5.50;99.90;;;;;;5023953;28;20068;-87
2023/03/01 19:56:39;;;;;;;7.82;6.05;;;6.00;99.90;;;;;;5024124;28;20021;-87
2023/03/01 19:59:05;;;;;;;10.55;6.88;;;5.40;99.90;;;;;;5023095;28;20026;-87
2023/03/01 20:01:33;;;;;;;12.30;8.00;;;5.40;99.90;;;;;;5024320;28;20082;-86
2023/03/01 20:03:59;;;;;;;13.32;8.02;;;5.40;99.90;;;;;;5026427;28;20044;-87
2023/03/01 20:06:25;;;;;;;9.55;7.13;;;5.40;99.90;;;;;;5028573;28;20040;-86
2023/03/01 20:08:54;;;;;;;12.45;6.88;;;5.20;99.90;;;;;;5021108;28;20374;-86
2023/03/01 20:11:23;;;;;;;9.00;7.03;;;5.80;99.90;;;;;;5022812;28;20048;-87
2023/03/01 20:14:01;;;;;;;12.23;7.68;;;5.10;99.90;;;;;;5023993;28;20045;-87
2023/03/01 20:16:26;;;;;;;11.82;7.47;;;5.20;99.90;;;;;;5026031;28;20026;-87
2023/03/01 20:18:56;;;;;;;8.02;6.25;;;5.80;99.90;;;;;;5027276;28;20025;-87
2023/03/01 20:21:32;;;;;;;10.88;7.57;;;5.10;99.90;;;;;;5025190;28;20029;-87
2023/03/01 20:24:07;;;;;;;7.45;5.75;;;5.50;99.90;;;;;;5030345;28;20092;-87
2023/03/01 20:26:33;;;;;;;11.93;7.38;;;4.90;99.90;;;;;;5028537;28;20040;-87
2023/03/01 20:29:07;;;;;;;8.23;5.90;;;5.50;99.90;;;;;;5029728;28;20025;-87
2023/03/01 20:31:40;;;;;;;7.78;5.85;;;4.80;99.90;;;;;;5028670;28;20021;-86
2023/03/01 20:34:05;;;;;;;8.20;5.95;;;5.00;99.90;;;;;;5027474;28;20029;-87
2023/03/01 20:36:41;;;;;;;12.93;6.85;;;6.20;99.90;;;;;;5029297;28;20104;-87
2023/03/01 20:39:16;;;;;;;11.68;7.10;;;4.80;99.90;;;;;;5050667;28;20025;-87
2023/03/01 20:41:42;;;;;;;10.30;6.68;;;4.80;99.90;;;;;;5054221;28;20373;-87
2023/03/01 20:44:08;;;;;;;12.40;7.10;;;4.80;99.90;;;;;;5041312;28;20025;-87
2023/03/01 20:46:34;;;;;;;9.60;6.38;;;4.80;99.90;;;;;;5054654;28;20044;-87
2023/03/01 20:49:00;;;;;;;8.98;5.68;;;4.80;99.90;;;;;;5054369;28;20071;-87
2023/03/01 20:51:26;;;;;;;9.98;6.30;;;4.70;99.90;;;;;;5042662;28;20025;-87
2023/03/01 20:53:52;;;;;;;7.00;5.43;;;5.10;99.90;;;;;;5034489;28;20481;-88
2023/03/01 20:56:19;;;;;;;9.38;5.78;;;4.70;99.90;;;;;;5034341;28;20485;-88
2023/03/01 20:58:44;;;;;;;6.75;5.10;;;4.70;99.90;;;;;;5044691;28;20111;-87
2023/03/01 21:01:15;;;;;;;9.68;6.13;;;4.70;99.90;;;;;;5040869;28;20106;-88
2023/03/01 21:03:41;;;;;;;15.93;6.57;;;4.70;99.90;;;;;;5054539;28;20023;-88
2023/03/01 21:06:06;;;;;;;9.25;6.50;;;4.80;99.90;;;;;;5037650;28;20029;-87
2023/03/01 21:08:33;;;;;;;7.50;5.82;;;4.70;99.90;;;;;;5044630;28;20025;-87
2023/03/01 21:10:59;;;;;;;14.00;6.60;;;4.70;99.90;;;;;;5041303;28;20171;-88
2023/03/01 21:13:25;;;;;;;9.15;6.20;;;4.70;99.90;;;;;;5044227;28;20112;-88
2023/03/01 21:15:55;;;;;;;9.85;6.95;;;4.80;99.90;;;;;;5034209;28;20056;-89
2023/03/01 21:18:20;;;;;;;17.17;7.70;;;4.70;99.90;;;;;;5044915;28;20040;-88
2023/03/01 21:21:09;;;;;;;12.02;7.57;;;4.70;99.90;;;;;;5049967;28;20404;-88
2023/03/01 21:23:36;;;;;;;10.38;6.35;;;4.70;99.90;;;;;;5037348;28;20036;-88
2023/03/01 21:26:19;;;;;;;8.25;6.25;;;4.70;99.90;;;;;;5041046;28;20025;-87
2023/03/01 21:28:49;;;;;;;9.27;6.40;;;4.60;99.90;;;;;;5050901;28;21119;-87
2023/03/01 21:31:18;;;;;;;7.32;6.55;;;4.60;99.90;;;;;;5021899;28;20017;-87
2023/03/01 21:33:47;;;;;;;8.75;6.60;;;4.60;99.90;;;;;;5032949;28;20021;-86
2023/03/01 21:36:13;;;;;;;12.50;7.68;;;4.60;99.90;;;;;;5024931;28;20052;-86
2023/03/01 21:38:40;;;;;;;8.98;7.10;;;4.50;99.90;;;;;;5040447;28;20017;-87
2023/03/01 21:41:15;;;;;;;9.40;7.28;;;4.50;99.90;;;;;;5029519;28;20098;-87
2023/03/01 21:43:43;;;;;;;10.65;6.75;;;4.50;99.90;;;;;;5025044;28;20029;-87
2023/03/01 21:46:12;;;;;;;8.65;7.07;;;4.40;99.90;;;;;;5030354;28;20037;-87
2023/03/01 21:48:44;;;;;;;11.70;8.23;;;4.40;99.90;;;;;;5027049;28;20509;-87
2023/03/01 21:51:12;;;;;;;12.68;7.88;;;4.50;99.90;;;;;;5027103;28;20021;-87
2023/03/01 21:53:38;;;;;;;10.95;7.32;;;4.50;99.90;;;;;;5027648;28;20071;-86
2023/03/01 21:56:08;;;;;;;11.85;8.00;;;4.30;99.90;;;;;;5021757;28;20018;-86
2023/03/01 21:58:36;;;;;;;10.32;7.40;;;4.20;99.90;;;;;;5024603;28;20025;-86
2023/03/01 22:01:14;;;;;;;10.10;7.55;;;4.90;99.90;;;;;;5019862;28;20025;-86
2023/03/01 22:03:48;;;;;;;12.23;7.72;;;4.20;99.90;;;;;;5019019;28;20493;-86
2023/03/01 22:06:25;;;;;;;9.57;7.57;;;4.20;99.90;;;;;;5013267;28;20045;-86
2023/03/01 22:08:52;;;;;;;9.90;7.80;;;4.70;99.90;;;;;;5023323;28;20103;-86
2023/03/01 22:11:21;;;;;;;13.70;7.90;;;4.20;99.90;;;;;;5019597;28;20381;-87
2023/03/01 22:13:56;;;;;;;10.02;7.90;;;4.50;99.90;;;;;;5018106;28;20080;-86
2023/03/01 22:16:25;;;;;;;14.35;9.10;;;4.00;99.90;;;;;;5021662;28;20021;-86
2023/03/01 22:18:54;;;;;;;13.00;8.93;;;4.80;99.90;;;;;;5020933;28;20029;-88
2023/03/01 22:21:31;;;;;;;10.75;8.70;;;4.50;99.90;;;;;;5021372;28;20022;-87
2023/03/01 22:23:57;;;;;;;12.25;8.15;;;3.70;99.90;;;;;;5020848;28;20120;-89
2023/03/01 22:26:32;;;;;;;13.90;9.18;;;4.00;99.90;;;;;;5023939;28;20876;-87
2023/03/01 22:29:00;;;;;;;14.98;9.23;;;3.90;99.90;;;;;;5021300;28;20389;-87
2023/03/01 22:31:29;;;;;;;10.68;8.82;;;4.40;99.90;;;;;;5021911;28;20022;-88
2023/03/01 22:33:58;;;;;;;11.10;8.75;;;4.30;99.90;;;;;;5018886;28;20511;-86
2023/03/01 22:36:25;;;;;;;13.48;9.25;;;4.00;99.90;;;;;;5027663;28;20030;-88
2023/03/01 22:39:00;;;;;;;15.60;9.68;;;4.30;99.90;;;;;;5030600;28;20022;-86
2023/03/01 22:41:32;;;;;;;17.10;9.45;;;3.90;99.90;;;;;;5043621;22;20053;-87
2023/03/01 22:43:57;;;;;;;13.40;9.55;;;5.30;99.90;;;;;;5046405;28;20041;-87
2023/03/01 22:46:24;;;;;;;16.63;9.98;;;4.70;99.90;;;;;;5053035;28;20534;-87
2023/03/01 22:48:50;;;;;;;12.77;10.10;;;3.70;99.90;;;;;;5039480;28;20053;-88
2023/03/01 22:51:22;;;;;;;23.95;9.68;;;3.80;99.90;;;;;;5022402;28;20489;-89
2023/03/01 22:53:51;;;;;;;15.75;9.48;;;3.70;99.90;;;;;;5031084;28;20022;-88
2023/03/01 22:56:23;;;;;;;15.07;9.57;;;3.70;99.90;;;;;;5029327;28;20071;-88
2023/03/01 22:58:48;;;;;;;13.73;9.50;;;4.30;99.90;;;;;;5031640;28;20025;-88
2023/03/01 23:01:21;;;;;;;14.48;10.00;;;4.00;99.90;;;;;;5032504;28;20539;-89
2023/03/01 23:03:46;;;;;;;20.25;10.77;;;3.60;99.90;;;;;;5032239;28;20026;-88
2023/03/01 23:06:14;;;;;;;15.15;10.10;;;3.60;99.90;;;;;;5032571;28;20032;-88
2023/03/01 23:08:40;;;;;;;14.23;10.00;;;3.50;99.90;;;;;;5032017;28;20033;-88
2023/03/01 23:11:11;;;;;;;13.52;9.05;;;3.60;99.90;;;;;;5032489;28;20081;-88
2023/03/01 23:13:38;;;;;;;15.15;10.45;;;3.60;99.90;;;;;;5032330;28;20030;-89
2023/03/01 23:16:03;;;;;;;14.20;10.23;;;3.60;99.90;;;;;;5032227;28;20025;-88
2023/03/01 23:18:29;;;;;;;14.57;10.10;;;3.50;99.90;;;;;;5031064;28;20061;-88
2023/03/01 23:20:55;;;;;;;16.23;11.43;;;3.50;99.90;;;;;;5032506;28;20033;-88
2023/03/01 23:23:20;;;;;;;16.48;11.27;;;3.80;99.90;;;;;;5031957;28;20026;-88
2023/03/01 23:25:57;;;;;;;15.90;10.45;;;3.50;99.90;;;;;;5032357;28;20021;-88
2023/03/01 23:28:24;;;;;;;17.42;10.15;;;3.50;99.90;;;;;;5032414;28;20037;-88
2023/03/01 23:30:55;;;;;;;13.52;9.30;;;3.50;99.90;;;;;;5031996;28;20495;-88
2023/03/01 23:33:21;;;;;;;16.23;10.75;;;3.50;99.90;;;;;;5032237;28;20057;-88
2023/03/01 23:35:46;;;;;;;14.23;10.32;;;3.50;99.90;;;;;;5032529;28;20053;-87
2023/03/01 23:38:12;;;;;;;15.75;10.45;;;4.20;99.90;;;;;;5031993;28;20022;-88
2023/03/01 23:40:38;;;;;;;15.35;10.98;;;3.50;99.90;;;;;;5031917;28;20639;-89
2023/03/01 23:43:03;;;;;;;21.40;10.80;;;3.90;99.90;;;;;;5032757;28;20026;-89
2023/03/01 23:45:29;;;;;;;18.30;10.95;;;3.40;99.90;;;;;;5032406;28;20385;-88
2023/03/01 23:47:55;;;;;;;15.30;10.80;;;3.60;99.90;;;;;;5032908;28;20355;-88
2023/03/01 23:50:21;;;;;;;14.95;11.18;;;3.90;99.90;;;;;;5036210;28;20026;-88
2023/03/01 23:52:46;;;;;;;16.33;11.18;;;3.40;99.90;;;;;;5036104;28;20111;-88
2023/03/01 23:55:14;;;;;;;21.15;11.63;;;3.30;99.90;;;;;;5035775;28;20033;-88
2023/03/01 23:57:40;;;;;;;18.35;12.30;;;3.30;99.90;;;;;;5035743;28;20488;-88
